createdAt,value
2023-04-30T00:01:19.443Z,91756.50
2023-04-30T00:03:51.941Z,91750.84
2023-04-30T00:06:25.130Z,91751.69
2023-04-30T00:08:59.209Z,91762.03
2023-04-30T00:11:31.522Z,91758.50
2023-04-30T00:14:04.002Z,91755.31
2023-04-30T00:16:37.021Z,91754.06
2023-04-30T00:19:09.490Z,91752.72
2023-04-30T00:21:41.891Z,91749.66
2023-04-30T00:24:14.212Z,91759.88
2023-04-30T00:26:47.112Z,91751.13
2023-04-30T00:29:19.477Z,91751.19
2023-04-30T00:31:52.568Z,91756.69
2023-04-30T00:34:24.956Z,91752.34
2023-04-30T00:36:57.369Z,91759.59
2023-04-30T00:39:29.708Z,91756.59
2023-04-30T00:42:02.221Z,91758.44
2023-04-30T00:44:34.554Z,91759.50
2023-04-30T00:47:07.553Z,91760.56
2023-04-30T00:49:40.222Z,91752.47
2023-04-30T00:52:13.003Z,91742.75
2023-04-30T00:54:45.517Z,91750.16
2023-04-30T00:57:17.901Z,91754.97
2023-04-30T00:59:50.683Z,91748.22
2023-04-30T01:02:24.040Z,91752.25
2023-04-30T01:04:57.128Z,91745.63
2023-04-30T01:07:30.461Z,91741.56
2023-04-30T01:10:03.061Z,91748.03
2023-04-30T01:12:39.353Z,91751.19
2023-04-30T01:15:18.914Z,91748.66
2023-04-30T01:17:56.773Z,91748.19
2023-04-30T01:20:30.758Z,91741.34
2023-04-30T01:23:11.816Z,91741.50
2023-04-30T01:25:53.191Z,91741.50
2023-04-30T01:28:28.213Z,91739.47
2023-04-30T01:31:02.004Z,91741.94
2023-04-30T01:33:34.359Z,91735.22
2023-04-30T01:36:29.641Z,91738.09
2023-04-30T01:39:37.496Z,91738.09
2023-04-30T01:42:16.240Z,91738.94
2023-04-30T01:45:09.190Z,91733.47
2023-04-30T01:47:49.855Z,91736.06
2023-04-30T01:50:29.383Z,91716.25
2023-04-30T01:53:06.547Z,91728.44
2023-04-30T01:55:43.209Z,91740.47
2023-04-30T01:58:16.645Z,91732.50
2023-04-30T02:00:49.707Z,91738.06
2023-04-30T02:03:22.313Z,91736.22
2023-04-30T02:05:55.084Z,91734.69
2023-04-30T02:08:27.410Z,91723.66
2023-04-30T02:10:59.716Z,91734.50
2023-04-30T02:13:32.039Z,91737.94
2023-04-30T02:16:06.160Z,91733.81
2023-04-30T02:18:38.664Z,91733.25
2023-04-30T02:21:11.149Z,91728.38
2023-04-30T02:23:43.539Z,91724.53
2023-04-30T02:26:15.882Z,91734.34
2023-04-30T02:28:48.219Z,91725.16
2023-04-30T02:31:21.303Z,91724.09
2023-04-30T02:33:54.274Z,91717.06
2023-04-30T02:36:26.608Z,91721.44
2023-04-30T02:38:58.968Z,91721.91
2023-04-30T02:41:31.371Z,91727.50
2023-04-30T02:44:04.181Z,91723.97
2023-04-30T02:46:37.199Z,91727.44
2023-04-30T02:49:09.498Z,91731.47
2023-04-30T02:51:41.800Z,91730.41
2023-04-30T02:54:14.126Z,91729.91
2023-04-30T02:56:46.807Z,91735.00
2023-04-30T02:59:19.144Z,91736.19
2023-04-30T03:01:52.227Z,91727.63
2023-04-30T03:04:26.454Z,91735.34
2023-04-30T03:06:59.814Z,91732.13
2023-04-30T03:09:32.154Z,91733.31
2023-04-30T03:12:05.107Z,91738.13
2023-04-30T03:14:37.453Z,91739.47
2023-04-30T03:17:10.493Z,91737.19
2023-04-30T03:19:42.855Z,91743.31
2023-04-30T03:22:15.178Z,91736.88
2023-04-30T03:24:47.462Z,91744.38
2023-04-30T03:27:20.229Z,91744.31
2023-04-30T03:29:52.844Z,91735.56
2023-04-30T03:32:26.465Z,91743.56
2023-04-30T03:34:58.856Z,91740.09
2023-04-30T03:37:32.276Z,91748.75
2023-04-30T03:40:06.201Z,91745.19
2023-04-30T03:42:38.549Z,91754.03
2023-04-30T03:45:11.340Z,91751.53
2023-04-30T03:47:44.953Z,91759.06
2023-04-30T03:50:18.298Z,91758.00
2023-04-30T03:52:50.959Z,91759.06
2023-04-30T03:55:23.559Z,91759.91
2023-04-30T03:57:55.958Z,91766.28
2023-04-30T04:00:28.463Z,91769.28
2023-04-30T04:03:01.668Z,91772.06
2023-04-30T04:05:34.073Z,91769.94
2023-04-30T04:08:06.848Z,91769.19
2023-04-30T04:10:39.822Z,91769.84
2023-04-30T04:13:12.267Z,91772.88
2023-04-30T04:15:44.613Z,91772.97
2023-04-30T04:18:17.631Z,91771.31
2023-04-30T04:20:50.200Z,91776.59
2023-04-30T04:23:23.082Z,91781.16
2023-04-30T04:25:56.788Z,91780.19
2023-04-30T04:28:30.172Z,91779.81
2023-04-30T04:31:03.029Z,91780.97
2023-04-30T04:33:36.461Z,91779.59
2023-04-30T04:36:08.804Z,91789.16
2023-04-30T04:38:41.323Z,91784.63
2023-04-30T04:41:13.766Z,91782.38
2023-04-30T04:43:46.100Z,91790.63
2023-04-30T04:46:20.192Z,91792.91
2023-04-30T04:48:53.349Z,91793.31
2023-04-30T04:51:26.178Z,91804.56
2023-04-30T04:53:58.575Z,91804.75
2023-04-30T04:56:30.985Z,91801.31
2023-04-30T04:59:03.362Z,91809.47
2023-04-30T05:01:35.802Z,91807.25
2023-04-30T05:04:09.226Z,91803.28
2023-04-30T05:06:42.359Z,91801.09
2023-04-30T05:09:15.014Z,91804.84
2023-04-30T05:11:48.308Z,91805.09
2023-04-30T05:14:20.621Z,91807.91
2023-04-30T05:16:52.928Z,91805.75
2023-04-30T05:19:26.015Z,91794.44
2023-04-30T05:22:00.629Z,91801.84
2023-04-30T05:24:33.509Z,91812.44
2023-04-30T05:27:05.981Z,91806.25
2023-04-30T05:29:38.293Z,91810.56
2023-04-30T05:32:10.827Z,91810.22
2023-04-30T05:34:43.855Z,91802.63
2023-04-30T05:37:17.014Z,91807.44
2023-04-30T05:39:49.346Z,91799.94
2023-04-30T05:42:21.680Z,91800.28
2023-04-30T05:44:53.974Z,91800.16
2023-04-30T05:47:26.294Z,91803.44
2023-04-30T05:49:59.389Z,91797.03
2023-04-30T05:52:32.092Z,91797.97
2023-04-30T05:55:05.132Z,91797.44
2023-04-30T05:57:37.557Z,91801.03
2023-04-30T06:00:10.708Z,91811.00
2023-04-30T06:02:45.987Z,91813.50
2023-04-30T06:05:19.163Z,91812.16
2023-04-30T06:07:51.490Z,91812.34
2023-04-30T06:10:24.066Z,91816.97
2023-04-30T06:12:56.390Z,91815.75
2023-04-30T06:15:28.722Z,91824.66
2023-04-30T06:18:01.540Z,91827.91
2023-04-30T06:20:34.636Z,91829.59
2023-04-30T06:23:06.936Z,91829.88
2023-04-30T06:25:39.711Z,91830.06
2023-04-30T06:28:11.992Z,91833.72
2023-04-30T06:30:44.795Z,91826.53
2023-04-30T06:33:17.256Z,91827.59
2023-04-30T06:35:53.917Z,91834.06
2023-04-30T06:38:26.206Z,91832.81
2023-04-30T06:40:58.537Z,91829.88
2023-04-30T06:43:31.110Z,91831.44
2023-04-30T06:46:04.363Z,91831.44
2023-04-30T06:48:36.757Z,91827.72
2023-04-30T06:51:10.840Z,91828.91
2023-04-30T06:53:43.462Z,91830.25
2023-04-30T06:56:15.797Z,91839.13
2023-04-30T06:58:49.653Z,91834.75
2023-04-30T07:01:22.019Z,91845.00
2023-04-30T07:03:54.515Z,91848.94
2023-04-30T07:06:27.839Z,91845.19
2023-04-30T07:09:00.199Z,91842.81
2023-04-30T07:11:32.718Z,91837.28
2023-04-30T07:14:05.041Z,91845.13
2023-04-30T07:16:37.299Z,91845.84
2023-04-30T07:19:09.600Z,91841.94
2023-04-30T07:21:42.576Z,91846.81
2023-04-30T07:24:14.956Z,91848.34
2023-04-30T07:26:47.277Z,91848.13
2023-04-30T07:29:19.719Z,91848.56
2023-04-30T07:31:52.152Z,91849.78
2023-04-30T07:34:25.069Z,91854.34
2023-04-30T07:36:58.010Z,91853.25
2023-04-30T07:39:30.683Z,91854.78
2023-04-30T07:42:03.394Z,91861.63
2023-04-30T07:44:35.667Z,91861.31
2023-04-30T07:47:09.229Z,91867.78
2023-04-30T07:49:41.587Z,91870.84
2023-04-30T07:52:14.682Z,91871.38
2023-04-30T07:54:47.022Z,91874.50
2023-04-30T07:57:19.350Z,91886.56
2023-04-30T07:59:53.130Z,91882.59
2023-04-30T08:02:26.095Z,91880.41
2023-04-30T08:04:58.571Z,91879.47
2023-04-30T08:07:31.532Z,91876.53
2023-04-30T08:10:04.433Z,91875.59
2023-04-30T08:12:36.799Z,91874.56
2023-04-30T08:15:09.308Z,91881.53
2023-04-30T08:17:41.626Z,91872.34
2023-04-30T08:20:14.231Z,91882.59
2023-04-30T08:22:47.263Z,91879.41
2023-04-30T08:25:19.676Z,91879.28
2023-04-30T08:27:51.989Z,91878.66
2023-04-30T08:30:24.732Z,91869.31
2023-04-30T08:32:57.780Z,91873.47
2023-04-30T08:35:30.409Z,91871.47
2023-04-30T08:38:03.397Z,91869.00
2023-04-30T08:40:50.371Z,91875.66
2023-04-30T08:43:23.740Z,91876.09
2023-04-30T08:45:56.724Z,91868.88
2023-04-30T08:48:30.473Z,91869.69
2023-04-30T08:51:04.308Z,91867.09
2023-04-30T08:53:37.670Z,91870.28
2023-04-30T08:56:10.598Z,91865.72
2023-04-30T08:58:43.128Z,91873.81
2023-04-30T09:01:16.048Z,91863.25
2023-04-30T09:03:48.566Z,91869.91
2023-04-30T09:06:21.372Z,91851.69
2023-04-30T09:08:54.535Z,91856.28
2023-04-30T09:11:28.416Z,91851.44
2023-04-30T09:14:02.082Z,91862.22
2023-04-30T09:16:46.247Z,91850.91
2023-04-30T09:19:25.289Z,91855.25
2023-04-30T09:21:57.723Z,91860.09
2023-04-30T09:24:46.799Z,91861.03
2023-04-30T09:27:21.364Z,91852.84
2023-04-30T09:29:53.948Z,91849.50
2023-04-30T09:32:26.688Z,91836.94
2023-04-30T09:34:59.074Z,91843.00
2023-04-30T09:37:37.295Z,91836.88
2023-04-30T09:40:10.984Z,91836.06
2023-04-30T09:42:58.112Z,91827.56
2023-04-30T09:45:40.098Z,91834.25
2023-04-30T09:48:17.193Z,91831.72
2023-04-30T09:50:50.474Z,91836.56
2023-04-30T09:53:23.532Z,91830.75
2023-04-30T09:56:00.015Z,91825.13
2023-04-30T09:58:36.927Z,91829.38
2023-04-30T10:01:11.041Z,91818.84
2023-04-30T10:03:43.922Z,91824.81
2023-04-30T10:06:18.001Z,91813.03
2023-04-30T10:08:55.680Z,91815.44
2023-04-30T10:11:32.599Z,91812.25
2023-04-30T10:14:10.477Z,91815.47
2023-04-30T10:16:47.199Z,91811.50
2023-04-30T10:19:22.506Z,91816.38
2023-04-30T10:21:55.276Z,91825.44
2023-04-30T10:24:28.118Z,91825.00
2023-04-30T10:27:02.463Z,91827.00
2023-04-30T10:29:34.838Z,91830.34
2023-04-30T10:32:08.051Z,91832.47
2023-04-30T10:34:49.820Z,91841.28
2023-04-30T10:37:31.257Z,91848.09
2023-04-30T10:40:05.046Z,91850.94
2023-04-30T10:42:44.863Z,91847.84
2023-04-30T10:45:17.411Z,91843.47
2023-04-30T10:47:49.878Z,91849.31
2023-04-30T10:50:23.636Z,91831.78
2023-04-30T10:53:02.968Z,91833.84
2023-04-30T10:55:46.430Z,91818.97
2023-04-30T10:58:26.853Z,91830.00
2023-04-30T11:01:03.806Z,91828.47
2023-04-30T11:03:36.914Z,91833.72
2023-04-30T11:06:11.986Z,91827.81
2023-04-30T11:08:45.566Z,91824.84
2023-04-30T11:11:20.365Z,91813.78
2023-04-30T11:14:00.285Z,91812.97
2023-04-30T11:16:35.110Z,91804.69
2023-04-30T11:19:11.560Z,91812.06
2023-04-30T11:22:18.654Z,91805.75
2023-04-30T11:25:02.869Z,91803.53
2023-04-30T11:27:36.778Z,91808.06
2023-04-30T11:30:14.733Z,91804.97
2023-04-30T11:32:50.220Z,91811.69
2023-04-30T11:35:22.702Z,91805.66
2023-04-30T11:37:56.751Z,91801.66
2023-04-30T11:40:35.012Z,91794.28
2023-04-30T11:43:07.693Z,91799.78
2023-04-30T11:45:40.905Z,91800.75
2023-04-30T11:48:14.044Z,91795.00
2023-04-30T11:50:46.873Z,91796.69
2023-04-30T11:53:26.236Z,91794.75
2023-04-30T11:56:03.327Z,91795.66
2023-04-30T11:58:38.467Z,91794.13
2023-04-30T12:01:11.687Z,91792.88
2023-04-30T12:03:45.757Z,91789.53
2023-04-30T12:06:22.836Z,91793.22
2023-04-30T12:08:56.111Z,91793.28
2023-04-30T12:11:30.230Z,91788.66
2023-04-30T12:14:04.423Z,91788.91
2023-04-30T12:16:43.526Z,91779.16
2023-04-30T12:19:16.412Z,91766.53
2023-04-30T12:21:49.408Z,91772.19
2023-04-30T12:24:22.932Z,91781.41
2023-04-30T12:26:55.290Z,91771.66
2023-04-30T12:29:27.718Z,91773.81
2023-04-30T12:32:01.066Z,91783.44
2023-04-30T12:34:33.910Z,91778.41
2023-04-30T12:37:06.522Z,91792.38
2023-04-30T12:39:38.869Z,91803.31
2023-04-30T12:42:11.366Z,91800.72
2023-04-30T12:44:44.767Z,91800.06
2023-04-30T12:47:18.464Z,91805.66
2023-04-30T12:49:51.019Z,91809.75
2023-04-30T12:52:25.483Z,91810.69
2023-04-30T12:55:14.640Z,91808.59
2023-04-30T12:58:06.714Z,91805.16
2023-04-30T13:00:46.926Z,91809.22
2023-04-30T13:03:21.522Z,91801.31
2023-04-30T13:05:54.093Z,91791.59
2023-04-30T13:08:27.264Z,91793.09
2023-04-30T13:10:59.549Z,91793.06
2023-04-30T13:13:33.065Z,91790.94
2023-04-30T13:16:05.972Z,91799.50
2023-04-30T13:18:39.020Z,91792.69
2023-04-30T13:21:12.057Z,91786.50
2023-04-30T13:23:51.976Z,91783.25
2023-04-30T13:26:26.268Z,91772.72
2023-04-30T13:28:58.706Z,91772.75
2023-04-30T13:31:31.374Z,91766.34
2023-04-30T13:34:04.478Z,91759.69
2023-04-30T13:36:36.921Z,91760.53
2023-04-30T13:39:09.265Z,91766.50
2023-04-30T13:41:41.597Z,91767.25
2023-04-30T13:44:13.915Z,91768.41
2023-04-30T13:46:46.283Z,91769.59
2023-04-30T13:49:19.309Z,91764.81
2023-04-30T13:51:51.651Z,91765.38
2023-04-30T13:54:23.975Z,91760.91
2023-04-30T13:56:56.382Z,91758.31
2023-04-30T13:59:28.923Z,91760.09
2023-04-30T14:02:01.398Z,91749.41
2023-04-30T14:04:34.581Z,91747.72
2023-04-30T14:07:06.968Z,91756.97
2023-04-30T14:09:39.329Z,91750.81
2023-04-30T14:12:11.647Z,91749.03
2023-04-30T14:14:43.998Z,91746.00
2023-04-30T14:17:16.372Z,91742.84
2023-04-30T14:19:49.378Z,91743.34
2023-04-30T14:22:21.999Z,91748.97
2023-04-30T14:24:54.371Z,91741.47
2023-04-30T14:27:26.710Z,91741.25
2023-04-30T14:29:59.174Z,91743.38
2023-04-30T14:32:31.518Z,91747.59
2023-04-30T14:35:05.680Z,91746.00
2023-04-30T14:37:37.985Z,91746.97
2023-04-30T14:40:11.115Z,91744.19
2023-04-30T14:42:43.600Z,91741.38
2023-04-30T14:45:16.119Z,91740.59
2023-04-30T14:47:48.686Z,91739.19
2023-04-30T14:50:21.715Z,91746.03
2023-04-30T14:52:54.039Z,91742.84
2023-04-30T14:55:26.499Z,91745.31
2023-04-30T14:57:59.052Z,91752.47
2023-04-30T15:00:31.472Z,91758.22
2023-04-30T15:03:03.919Z,91775.16
2023-04-30T15:05:37.184Z,91762.66
2023-04-30T15:08:09.997Z,91756.97
2023-04-30T15:10:42.571Z,91766.69
2023-04-30T15:13:14.896Z,91758.28
2023-04-30T15:15:48.941Z,91760.13
2023-04-30T15:18:21.328Z,91766.38
2023-04-30T15:20:54.343Z,91766.69
2023-04-30T15:23:26.700Z,91765.97
2023-04-30T15:25:59.202Z,91762.44
2023-04-30T15:28:32.345Z,91768.97
2023-04-30T15:31:05.667Z,91767.25
2023-04-30T15:33:41.262Z,91765.22
2023-04-30T15:36:14.246Z,91768.97
2023-04-30T15:38:46.670Z,91770.47
2023-04-30T15:41:19.006Z,91772.91
2023-04-30T15:43:51.355Z,91764.13
2023-04-30T15:46:23.856Z,91766.63
2023-04-30T15:48:56.538Z,91765.75
2023-04-30T15:51:29.571Z,91760.25
2023-04-30T15:54:02.094Z,91765.41
2023-04-30T15:56:35.035Z,91763.00
2023-04-30T15:59:07.367Z,91761.31
2023-04-30T16:01:39.744Z,91757.25
2023-04-30T16:04:12.151Z,91751.63
2023-04-30T16:06:45.370Z,91758.06
2023-04-30T16:09:19.742Z,91759.28
2023-04-30T16:11:52.074Z,91752.84
2023-04-30T16:14:24.398Z,91758.03
2023-04-30T16:16:56.905Z,91755.47
2023-04-30T16:19:29.332Z,91759.63
2023-04-30T16:22:02.837Z,91762.09
2023-04-30T16:24:35.300Z,91766.25
2023-04-30T16:27:07.842Z,91764.88
2023-04-30T16:29:40.147Z,91770.47
2023-04-30T16:32:12.858Z,91768.41
2023-04-30T16:34:45.387Z,91764.91
2023-04-30T16:37:18.433Z,91769.88
2023-04-30T16:39:50.778Z,91769.69
2023-04-30T16:42:23.114Z,91767.72
2023-04-30T16:44:55.443Z,91774.53
2023-04-30T16:47:27.770Z,91772.22
2023-04-30T16:50:00.117Z,91774.47
2023-04-30T16:52:33.890Z,91779.31
2023-04-30T16:55:07.459Z,91782.81
2023-04-30T16:57:39.842Z,91779.66
2023-04-30T17:00:14.204Z,91778.91
2023-04-30T17:02:48.063Z,91786.66
2023-04-30T17:05:20.980Z,91791.63
2023-04-30T17:07:53.980Z,91785.63
2023-04-30T17:10:26.699Z,91792.13
2023-04-30T17:13:01.235Z,91794.53
2023-04-30T17:15:33.566Z,91797.38
2023-04-30T17:18:06.221Z,91793.22
2023-04-30T17:20:38.669Z,91794.22
2023-04-30T17:23:11.676Z,91808.34
2023-04-30T17:25:43.990Z,91808.69
2023-04-30T17:28:16.609Z,91812.47
2023-04-30T17:30:49.266Z,91813.34
2023-04-30T17:33:21.605Z,91824.28
2023-04-30T17:35:54.316Z,91826.56
2023-04-30T17:38:27.578Z,91831.22
2023-04-30T17:41:00.020Z,91843.47
2023-04-30T17:43:32.869Z,91840.94
2023-04-30T17:46:05.319Z,91842.22
2023-04-30T17:48:37.781Z,91851.13
2023-04-30T17:51:10.321Z,91850.44
2023-04-30T17:53:43.322Z,91847.00
2023-04-30T17:56:15.663Z,91847.25
2023-04-30T17:58:48.416Z,91844.38
2023-04-30T18:01:20.975Z,91846.91
2023-04-30T18:03:53.471Z,91855.63
2023-04-30T18:06:25.923Z,91858.16
2023-04-30T18:09:00.941Z,91869.91
2023-04-30T18:11:33.346Z,91863.47
2023-04-30T18:14:05.646Z,91866.91
2023-04-30T18:16:38.044Z,91869.69
2023-04-30T18:19:10.423Z,91877.13
2023-04-30T18:21:42.797Z,91880.25
2023-04-30T18:24:16.066Z,91884.72
2023-04-30T18:26:48.429Z,91892.00
2023-04-30T18:29:20.777Z,91903.41
2023-04-30T18:31:53.216Z,91905.25
2023-04-30T18:34:27.386Z,91911.56
2023-04-30T18:36:59.785Z,91909.69
2023-04-30T18:39:32.836Z,91907.53
2023-04-30T18:42:05.244Z,91909.06
2023-04-30T18:44:37.569Z,91920.47
2023-04-30T18:47:10.677Z,91914.75
2023-04-30T18:49:43.310Z,91917.50
2023-04-30T18:52:15.685Z,91919.81
2023-04-30T18:54:48.923Z,91910.88
2023-04-30T18:57:21.270Z,91916.84
2023-04-30T18:59:54.227Z,91919.59
2023-04-30T19:02:26.945Z,91926.22
2023-04-30T19:04:59.494Z,91928.19
2023-04-30T19:07:31.909Z,91938.44
2023-04-30T19:10:05.824Z,91929.88
2023-04-30T19:12:38.553Z,91935.13
2023-04-30T19:15:14.388Z,91938.81
2023-04-30T19:17:46.982Z,91943.72
2023-04-30T19:20:19.364Z,91947.34
2023-04-30T19:22:51.735Z,91943.69
2023-04-30T19:25:26.054Z,91944.91
2023-04-30T19:27:58.417Z,91946.91
2023-04-30T19:30:30.794Z,91950.72
2023-04-30T19:33:04.697Z,91947.66
2023-04-30T19:35:38.019Z,91949.63
2023-04-30T19:38:10.325Z,91951.72
2023-04-30T19:40:47.319Z,91951.28
2023-04-30T19:43:20.396Z,91954.75
2023-04-30T19:45:54.065Z,91953.09
2023-04-30T19:48:26.526Z,91953.88
2023-04-30T19:50:58.858Z,91959.56
2023-04-30T19:53:31.364Z,91957.06
2023-04-30T19:56:04.539Z,91964.56
2023-04-30T19:58:36.990Z,91965.16
2023-04-30T20:01:09.880Z,91971.00
2023-04-30T20:03:42.717Z,91974.63
2023-04-30T20:06:15.268Z,91969.34
2023-04-30T20:08:48.150Z,91975.03
2023-04-30T20:11:22.003Z,91982.81
2023-04-30T20:13:54.753Z,91973.25
2023-04-30T20:16:27.162Z,91980.00
2023-04-30T20:18:59.636Z,91971.69
2023-04-30T20:21:32.213Z,91973.06
2023-04-30T20:24:05.482Z,91974.59
2023-04-30T20:26:38.556Z,91969.19
2023-04-30T20:29:10.966Z,91965.56
2023-04-30T20:31:43.400Z,91970.41
2023-04-30T20:34:16.087Z,91974.47
2023-04-30T20:36:49.229Z,91975.56
2023-04-30T20:39:21.753Z,91982.50
2023-04-30T20:41:54.819Z,91979.34
2023-04-30T20:44:27.396Z,91985.78
2023-04-30T20:46:59.767Z,91987.03
2023-04-30T20:49:32.135Z,91990.81
2023-04-30T20:52:05.083Z,91994.66
2023-04-30T20:54:37.432Z,91994.38
2023-04-30T20:57:10.539Z,91993.81
2023-04-30T20:59:43.072Z,91995.88
2023-04-30T21:02:15.763Z,91997.69
2023-04-30T21:04:48.141Z,92003.56
2023-04-30T21:07:20.499Z,92007.72
2023-04-30T21:09:53.052Z,92007.63
2023-04-30T21:12:26.240Z,92010.44
2023-04-30T21:14:59.016Z,92012.94
2023-04-30T21:17:31.592Z,92019.69
2023-04-30T21:20:04.431Z,92012.25
2023-04-30T21:22:38.511Z,92013.03
2023-04-30T21:25:11.443Z,92021.41
2023-04-30T21:27:44.885Z,92025.56
2023-04-30T21:30:17.561Z,92024.50
2023-04-30T21:32:49.973Z,92021.13
2023-04-30T21:35:22.356Z,92020.38
2023-04-30T21:37:55.037Z,92029.22
2023-04-30T21:40:27.532Z,92022.16
2023-04-30T21:43:01.027Z,92022.94
2023-04-30T21:45:34.230Z,92033.16
2023-04-30T21:48:06.739Z,92029.84
2023-04-30T21:50:39.405Z,92028.59
2023-04-30T21:53:11.795Z,92018.59
2023-04-30T21:55:44.153Z,92025.00
2023-04-30T21:58:17.170Z,92030.44
2023-04-30T22:00:50.072Z,92030.06
2023-04-30T22:03:22.512Z,92025.72
2023-04-30T22:05:54.914Z,92026.69
2023-04-30T22:08:27.678Z,92022.97
2023-04-30T22:11:00.965Z,92023.81
2023-04-30T22:13:33.925Z,92025.94
2023-04-30T22:16:07.150Z,92031.13
2023-04-30T22:18:39.581Z,92027.13
2023-04-30T22:21:12.105Z,92026.22
2023-04-30T22:23:44.560Z,92025.19
2023-04-30T22:26:16.921Z,92022.22
2023-04-30T22:28:49.957Z,92025.00
2023-04-30T22:31:22.400Z,92020.59
2023-04-30T22:33:54.874Z,92021.09
2023-04-30T22:36:27.225Z,92021.78
2023-04-30T22:38:59.643Z,92025.66
2023-04-30T22:41:33.951Z,92022.97
2023-04-30T22:44:07.244Z,92010.28
2023-04-30T22:46:40.397Z,92020.31
2023-04-30T22:49:27.356Z,92009.50
2023-04-30T22:52:03.803Z,92012.03
2023-04-30T22:54:36.280Z,92010.44
2023-04-30T22:57:08.767Z,92012.81
2023-04-30T22:59:41.870Z,92019.19
2023-04-30T23:02:14.349Z,92010.91
2023-04-30T23:04:46.748Z,92010.56
2023-04-30T23:07:19.106Z,92016.59
2023-04-30T23:09:51.721Z,92007.16
2023-04-30T23:12:24.147Z,92014.75
2023-04-30T23:14:57.244Z,92013.78
2023-04-30T23:17:29.603Z,92008.00
2023-04-30T23:20:02.489Z,92011.34
2023-04-30T23:22:34.886Z,92007.28
2023-04-30T23:25:07.783Z,92006.78
2023-04-30T23:27:40.152Z,91996.31
2023-04-30T23:30:13.356Z,91995.72
2023-04-30T23:32:45.860Z,91992.81
2023-04-30T23:35:18.416Z,91996.31
2023-04-30T23:37:50.822Z,91996.56
2023-04-30T23:40:23.246Z,91995.78
2023-04-30T23:42:55.617Z,91998.03
2023-04-30T23:45:28.594Z,92002.78
2023-04-30T23:48:01.075Z,92002.72
2023-04-30T23:50:33.511Z,91992.56
2023-04-30T23:53:05.814Z,92004.41
2023-04-30T23:55:40.660Z,91997.97
2023-04-30T23:58:13.186Z,92003.25
